sensor_id;sensor_type;location;lat;lon;timestamp;pressure;altitude;pressure_sealevel;temperature;humidity
14242;BME280;7205;50.864;12.766;2023-01-20T00:01:32;96918.16;;;2.25;85.59
14242;BME280;7205;50.864;12.766;2023-01-20T00:04:00;96912.25;;;2.23;85.52
14242;BME280;7205;50.864;12.766;2023-01-20T00:06:27;96906.63;;;2.28;85.04
14242;BME280;7205;50.864;12.766;2023-01-20T00:09:01;96909.06;;;2.29;85.41
14242;BME280;7205;50.864;12.766;2023-01-20T00:11:28;96915.34;;;2.36;85.83
14242;BME280;7205;50.864;12.766;2023-01-20T00:13:57;96915.22;;;2.38;85.71
14242;BME280;7205;50.864;12.766;2023-01-20T00:16:25;96916.88;;;2.39;84.81
14242;BME280;7205;50.864;12.766;2023-01-20T00:18:53;96929.22;;;2.37;85.12
14242;BME280;7205;50.864;12.766;2023-01-20T00:21:22;96920.44;;;2.38;84.61
14242;BME280;7205;50.864;12.766;2023-01-20T00:23:50;96922.75;;;2.41;84.90
14242;BME280;7205;50.864;12.766;2023-01-20T00:26:20;96934.66;;;2.43;84.48
14242;BME280;7205;50.864;12.766;2023-01-20T00:28:48;96929.91;;;2.39;84.88
14242;BME280;7205;50.864;12.766;2023-01-20T00:31:17;96935.09;;;2.39;84.19
14242;BME280;7205;50.864;12.766;2023-01-20T00:33:45;96938.41;;;2.41;84.63
14242;BME280;7205;50.864;12.766;2023-01-20T00:36:13;96936.06;;;2.38;84.45
14242;BME280;7205;50.864;12.766;2023-01-20T00:38:40;96941.56;;;2.35;84.22
14242;BME280;7205;50.864;12.766;2023-01-20T00:41:08;96941.56;;;2.35;84.15
14242;BME280;7205;50.864;12.766;2023-01-20T00:43:36;96944.16;;;2.35;84.02
14242;BME280;7205;50.864;12.766;2023-01-20T00:46:04;96952.94;;;2.34;83.73
14242;BME280;7205;50.864;12.766;2023-01-20T00:48:31;96947.34;;;2.29;84.10
14242;BME280;7205;50.864;12.766;2023-01-20T00:50:58;96965.97;;;2.34;84.14
14242;BME280;7205;50.864;12.766;2023-01-20T00:53:25;96971.16;;;2.34;83.67
14242;BME280;7205;50.864;12.766;2023-01-20T00:55:52;96971.03;;;2.35;83.58
14242;BME280;7205;50.864;12.766;2023-01-20T00:58:19;96972.94;;;2.33;84.10
14242;BME280;7205;50.864;12.766;2023-01-20T01:00:48;96981.31;;;2.37;83.07
14242;BME280;7205;50.864;12.766;2023-01-20T01:03:16;96973.50;;;2.37;83.42
14242;BME280;7205;50.864;12.766;2023-01-20T01:05:44;96994.72;;;2.42;83.27
14242;BME280;7205;50.864;12.766;2023-01-20T01:08:12;96992.13;;;2.42;83.16
14242;BME280;7205;50.864;12.766;2023-01-20T01:10:39;96990.75;;;2.38;83.66
14242;BME280;7205;50.864;12.766;2023-01-20T01:13:07;96992.25;;;2.40;82.86
14242;BME280;7205;50.864;12.766;2023-01-20T01:15:34;96995.56;;;2.42;82.97
14242;BME280;7205;50.864;12.766;2023-01-20T01:18:02;96999.34;;;2.48;83.26
14242;BME280;7205;50.864;12.766;2023-01-20T01:20:30;97005.41;;;2.48;83.66
14242;BME280;7205;50.864;12.766;2023-01-20T01:22:57;97005.25;;;2.50;83.00
14242;BME280;7205;50.864;12.766;2023-01-20T01:25:24;96997.28;;;2.51;83.30
14242;BME280;7205;50.864;12.766;2023-01-20T01:27:51;96998.81;;;2.54;83.64
14242;BME280;7205;50.864;12.766;2023-01-20T01:30:18;97005.34;;;2.58;83.13
14242;BME280;7205;50.864;12.766;2023-01-20T01:32:46;97003.19;;;2.53;83.19
14242;BME280;7205;50.864;12.766;2023-01-20T01:35:14;96992.09;;;2.51;82.83
14242;BME280;7205;50.864;12.766;2023-01-20T01:37:41;97004.03;;;2.54;82.71
14242;BME280;7205;50.864;12.766;2023-01-20T01:40:09;97001.56;;;2.52;82.40
14242;BME280;7205;50.864;12.766;2023-01-20T01:42:36;97003.34;;;2.52;82.25
14242;BME280;7205;50.864;12.766;2023-01-20T01:45:17;97008.69;;;2.50;82.63
14242;BME280;7205;50.864;12.766;2023-01-20T01:47:48;97005.25;;;2.50;82.16
14242;BME280;7205;50.864;12.766;2023-01-20T01:50:20;97016.66;;;2.49;82.81
14242;BME280;7205;50.864;12.766;2023-01-20T01:52:50;97017.44;;;2.49;82.81
14242;BME280;7205;50.864;12.766;2023-01-20T01:55:20;97021.72;;;2.50;82.65
14242;BME280;7205;50.864;12.766;2023-01-20T01:57:48;97027.75;;;2.51;82.22
14242;BME280;7205;50.864;12.766;2023-01-20T02:00:15;97026.91;;;2.50;81.77
14242;BME280;7205;50.864;12.766;2023-01-20T02:02:44;97029.66;;;2.49;81.66
14242;BME280;7205;50.864;12.766;2023-01-20T02:05:12;97031.31;;;2.50;82.33
14242;BME280;7205;50.864;12.766;2023-01-20T02:07:42;97029.53;;;2.50;82.48
14242;BME280;7205;50.864;12.766;2023-01-20T02:10:10;97045.00;;;2.52;81.95
14242;BME280;7205;50.864;12.766;2023-01-20T02:12:37;97034.59;;;2.52;81.97
14242;BME280;7205;50.864;12.766;2023-01-20T02:15:06;97032.69;;;2.54;81.82
14242;BME280;7205;50.864;12.766;2023-01-20T02:17:36;97038.69;;;2.54;82.07
14242;BME280;7205;50.864;12.766;2023-01-20T02:20:50;97049.78;;;2.56;81.86
14242;BME280;7205;50.864;12.766;2023-01-20T02:23:36;97043.91;;;2.54;81.92
14242;BME280;7205;50.864;12.766;2023-01-20T02:26:28;97043.09;;;2.54;81.72
14242;BME280;7205;50.864;12.766;2023-01-20T02:29:33;97044.19;;;2.51;81.29
14242;BME280;7205;50.864;12.766;2023-01-20T02:32:11;97046.66;;;2.53;81.39
14242;BME280;7205;50.864;12.766;2023-01-20T02:34:43;97045.72;;;2.54;81.47
14242;BME280;7205;50.864;12.766;2023-01-20T02:37:17;97054.47;;;2.53;81.21
14242;BME280;7205;50.864;12.766;2023-01-20T02:39:54;97057.06;;;2.53;81.06
14242;BME280;7205;50.864;12.766;2023-01-20T02:42:25;97064.22;;;2.51;81.13
14242;BME280;7205;50.864;12.766;2023-01-20T02:44:56;97057.50;;;2.48;81.33
14242;BME280;7205;50.864;12.766;2023-01-20T02:47:29;97059.13;;;2.49;81.74
14242;BME280;7205;50.864;12.766;2023-01-20T02:50:01;97066.13;;;2.49;81.13
14242;BME280;7205;50.864;12.766;2023-01-20T02:52:35;97064.47;;;2.48;81.41
14242;BME280;7205;50.864;12.766;2023-01-20T02:55:06;97061.72;;;2.49;80.92
14242;BME280;7205;50.864;12.766;2023-01-20T02:57:36;97064.09;;;2.52;81.09
14242;BME280;7205;50.864;12.766;2023-01-20T03:00:09;97069.84;;;2.56;81.46
14242;BME280;7205;50.864;12.766;2023-01-20T03:02:41;97072.16;;;2.59;81.79
14242;BME280;7205;50.864;12.766;2023-01-20T03:05:11;97076.53;;;2.58;81.20
14242;BME280;7205;50.864;12.766;2023-01-20T03:07:40;97083.41;;;2.60;81.04
14242;BME280;7205;50.864;12.766;2023-01-20T03:10:11;97078.06;;;2.61;81.14
14242;BME280;7205;50.864;12.766;2023-01-20T03:12:45;97082.44;;;2.61;81.42
14242;BME280;7205;50.864;12.766;2023-01-20T03:15:15;97080.66;;;2.61;81.64
14242;BME280;7205;50.864;12.766;2023-01-20T03:17:45;97079.97;;;2.59;81.22
14242;BME280;7205;50.864;12.766;2023-01-20T03:20:12;97082.72;;;2.58;81.10
14242;BME280;7205;50.864;12.766;2023-01-20T03:22:39;97082.88;;;2.56;80.91
14242;BME280;7205;50.864;12.766;2023-01-20T03:25:08;97082.97;;;2.54;80.89
14242;BME280;7205;50.864;12.766;2023-01-20T03:27:35;97080.66;;;2.51;81.01
14242;BME280;7205;50.864;12.766;2023-01-20T03:30:05;97092.06;;;2.50;81.03
14242;BME280;7205;50.864;12.766;2023-01-20T03:32:32;97092.19;;;2.49;80.69
14242;BME280;7205;50.864;12.766;2023-01-20T03:35:00;97095.88;;;2.46;80.92
14242;BME280;7205;50.864;12.766;2023-01-20T03:37:27;97096.03;;;2.45;81.39
14242;BME280;7205;50.864;12.766;2023-01-20T03:39:54;97105.59;;;2.44;81.05
14242;BME280;7205;50.864;12.766;2023-01-20T03:42:27;97104.25;;;2.40;80.72
14242;BME280;7205;50.864;12.766;2023-01-20T03:45:00;97114.53;;;2.42;80.64
14242;BME280;7205;50.864;12.766;2023-01-20T03:47:45;97105.19;;;2.39;81.03
14242;BME280;7205;50.864;12.766;2023-01-20T03:50:26;97103.56;;;2.38;81.52
14242;BME280;7205;50.864;12.766;2023-01-20T03:53:00;97109.75;;;2.37;80.68
14242;BME280;7205;50.864;12.766;2023-01-20T03:55:34;97111.53;;;2.37;80.96
14242;BME280;7205;50.864;12.766;2023-01-20T03:58:05;97116.72;;;2.37;81.57
14242;BME280;7205;50.864;12.766;2023-01-20T04:00:35;97122.78;;;2.37;81.23
14242;BME280;7205;50.864;12.766;2023-01-20T04:03:07;97117.72;;;2.36;80.92
14242;BME280;7205;50.864;12.766;2023-01-20T04:05:37;97123.72;;;2.36;81.28
14242;BME280;7205;50.864;12.766;2023-01-20T04:08:07;97126.47;;;2.35;81.29
14242;BME280;7205;50.864;12.766;2023-01-20T04:10:37;97140.44;;;2.34;81.76
14242;BME280;7205;50.864;12.766;2023-01-20T04:13:05;97132.63;;;2.34;81.27
14242;BME280;7205;50.864;12.766;2023-01-20T04:15:33;97135.09;;;2.35;81.77
14242;BME280;7205;50.864;12.766;2023-01-20T04:18:12;97137.56;;;2.37;81.51
14242;BME280;7205;50.864;12.766;2023-01-20T04:20:42;97142.63;;;2.38;81.70
14242;BME280;7205;50.864;12.766;2023-01-20T04:23:15;97132.22;;;2.38;81.50
14242;BME280;7205;50.864;12.766;2023-01-20T04:25:43;97137.44;;;2.38;81.17
14242;BME280;7205;50.864;12.766;2023-01-20T04:28:10;97127.97;;;2.37;81.13
14242;BME280;7205;50.864;12.766;2023-01-20T04:30:36;97134.13;;;2.36;81.34
14242;BME280;7205;50.864;12.766;2023-01-20T04:33:03;97144.69;;;2.35;81.44
14242;BME280;7205;50.864;12.766;2023-01-20T04:35:30;97137.03;;;2.33;81.39
14242;BME280;7205;50.864;12.766;2023-01-20T04:37:58;97139.63;;;2.33;81.60
14242;BME280;7205;50.864;12.766;2023-01-20T04:40:25;97138.13;;;2.31;81.89
14242;BME280;7205;50.864;12.766;2023-01-20T04:42:52;97138.38;;;2.28;81.29
14242;BME280;7205;50.864;12.766;2023-01-20T04:45:19;97135.91;;;2.26;81.20
14242;BME280;7205;50.864;12.766;2023-01-20T04:47:45;97143.72;;;2.26;81.89
14242;BME280;7205;50.864;12.766;2023-01-20T04:50:13;97150.84;;;2.24;81.73
14242;BME280;7205;50.864;12.766;2023-01-20T04:52:40;97150.84;;;2.24;82.10
14242;BME280;7205;50.864;12.766;2023-01-20T04:55:09;97162.22;;;2.23;82.04
14242;BME280;7205;50.864;12.766;2023-01-20T04:57:36;97158.56;;;2.26;82.15
14242;BME280;7205;50.864;12.766;2023-01-20T05:00:05;97159.22;;;2.28;82.47
14242;BME280;7205;50.864;12.766;2023-01-20T05:02:32;97156.59;;;2.28;81.90
14242;BME280;7205;50.864;12.766;2023-01-20T05:04:58;97159.22;;;2.28;81.89
14242;BME280;7205;50.864;12.766;2023-01-20T05:07:25;97159.75;;;2.31;82.32
14242;BME280;7205;50.864;12.766;2023-01-20T05:09:52;97158.00;;;2.32;81.87
14242;BME280;7205;50.864;12.766;2023-01-20T05:12:20;97164.84;;;2.33;81.97
14242;BME280;7205;50.864;12.766;2023-01-20T05:14:47;97171.72;;;2.34;82.15
14242;BME280;7205;50.864;12.766;2023-01-20T05:17:14;97175.00;;;2.36;82.56
14242;BME280;7205;50.864;12.766;2023-01-20T05:19:40;97178.41;;;2.36;82.66
14242;BME280;7205;50.864;12.766;2023-01-20T05:22:08;97185.28;;;2.37;82.37
14242;BME280;7205;50.864;12.766;2023-01-20T05:24:35;97190.34;;;2.39;82.47
14242;BME280;7205;50.864;12.766;2023-01-20T05:27:02;97190.34;;;2.39;82.85
14242;BME280;7205;50.864;12.766;2023-01-20T05:29:30;97191.06;;;2.41;83.07
14242;BME280;7205;50.864;12.766;2023-01-20T05:31:57;97195.97;;;2.44;82.72
14242;BME280;7205;50.864;12.766;2023-01-20T05:34:24;97202.81;;;2.45;83.12
14242;BME280;7205;50.864;12.766;2023-01-20T05:36:51;97199.13;;;2.47;82.88
14242;BME280;7205;50.864;12.766;2023-01-20T05:39:18;97211.06;;;2.50;82.95
14242;BME280;7205;50.864;12.766;2023-01-20T05:41:45;97212.59;;;2.52;82.83
14242;BME280;7205;50.864;12.766;2023-01-20T05:44:12;97215.19;;;2.52;82.10
14242;BME280;7205;50.864;12.766;2023-01-20T05:46:41;97218.72;;;2.51;82.21
14242;BME280;7205;50.864;12.766;2023-01-20T05:49:09;97220.53;;;2.51;81.68
14242;BME280;7205;50.864;12.766;2023-01-20T05:51:35;97225.59;;;2.52;82.15
14242;BME280;7205;50.864;12.766;2023-01-20T05:54:02;97218.34;;;2.56;81.99
14242;BME280;7205;50.864;12.766;2023-01-20T05:56:29;97229.44;;;2.58;82.07
14242;BME280;7205;50.864;12.766;2023-01-20T05:58:56;97236.31;;;2.59;82.14
14242;BME280;7205;50.864;12.766;2023-01-20T06:01:23;97231.94;;;2.60;81.94
14242;BME280;7205;50.864;12.766;2023-01-20T06:03:51;97231.78;;;2.61;82.17
14242;BME280;7205;50.864;12.766;2023-01-20T06:06:18;97232.59;;;2.62;81.79
14242;BME280;7205;50.864;12.766;2023-01-20T06:08:45;97234.41;;;2.61;81.85
14242;BME280;7205;50.864;12.766;2023-01-20T06:11:13;97241.38;;;2.61;82.21
14242;BME280;7205;50.864;12.766;2023-01-20T06:13:42;97245.63;;;2.62;81.64
14242;BME280;7205;50.864;12.766;2023-01-20T06:16:09;97238.63;;;2.62;81.48
14242;BME280;7205;50.864;12.766;2023-01-20T06:18:35;97244.69;;;2.63;81.49
14242;BME280;7205;50.864;12.766;2023-01-20T06:21:04;97246.44;;;2.62;81.50
14242;BME280;7205;50.864;12.766;2023-01-20T06:23:31;97257.00;;;2.61;81.47
14242;BME280;7205;50.864;12.766;2023-01-20T06:25:59;97264.00;;;2.60;81.20
14242;BME280;7205;50.864;12.766;2023-01-20T06:28:26;97259.75;;;2.59;81.04
14242;BME280;7205;50.864;12.766;2023-01-20T06:31:00;97266.59;;;2.60;81.63
14242;BME280;7205;50.864;12.766;2023-01-20T06:33:27;97267.44;;;2.61;81.80
14242;BME280;7205;50.864;12.766;2023-01-20T06:35:54;97265.81;;;2.60;80.89
14242;BME280;7205;50.864;12.766;2023-01-20T06:38:23;97268.41;;;2.60;81.59
14242;BME280;7205;50.864;12.766;2023-01-20T06:40:55;97278.00;;;2.59;81.43
14242;BME280;7205;50.864;12.766;2023-01-20T06:43:22;97277.16;;;2.58;80.78
14242;BME280;7205;50.864;12.766;2023-01-20T06:45:49;97286.75;;;2.58;81.47
14242;BME280;7205;50.864;12.766;2023-01-20T06:48:16;97288.56;;;2.58;81.04
14242;BME280;7205;50.864;12.766;2023-01-20T06:50:42;97288.56;;;2.58;80.84
14242;BME280;7205;50.864;12.766;2023-01-20T06:53:09;97301.31;;;2.61;81.25
14242;BME280;7205;50.864;12.766;2023-01-20T06:55:37;97298.56;;;2.62;81.61
14242;BME280;7205;50.864;12.766;2023-01-20T06:58:04;97302.81;;;2.63;81.11
14242;BME280;7205;50.864;12.766;2023-01-20T07:00:31;97307.09;;;2.64;80.92
14242;BME280;7205;50.864;12.766;2023-01-20T07:02:58;97306.25;;;2.64;81.03
14242;BME280;7205;50.864;12.766;2023-01-20T07:05:25;97308.03;;;2.63;81.14
14242;BME280;7205;50.864;12.766;2023-01-20T07:07:51;97310.63;;;2.63;81.62
14242;BME280;7205;50.864;12.766;2023-01-20T07:10:18;97319.13;;;2.65;81.04
14242;BME280;7205;50.864;12.766;2023-01-20T07:12:46;97316.41;;;2.67;81.59
14242;BME280;7205;50.864;12.766;2023-01-20T07:15:13;97322.31;;;2.69;81.61
14242;BME280;7205;50.864;12.766;2023-01-20T07:17:40;97318.75;;;2.70;81.03
14242;BME280;7205;50.864;12.766;2023-01-20T07:20:08;97322.88;;;2.72;81.53
14242;BME280;7205;50.864;12.766;2023-01-20T07:22:35;97326.31;;;2.73;81.68
14242;BME280;7205;50.864;12.766;2023-01-20T07:25:02;97333.97;;;2.74;81.26
14242;BME280;7205;50.864;12.766;2023-01-20T07:27:29;97332.22;;;2.75;81.36
14242;BME280;7205;50.864;12.766;2023-01-20T07:29:57;97338.38;;;2.74;81.19
14242;BME280;7205;50.864;12.766;2023-01-20T07:32:24;97338.38;;;2.74;81.00
14242;BME280;7205;50.864;12.766;2023-01-20T07:34:54;97340.13;;;2.73;81.41
14242;BME280;7205;50.864;12.766;2023-01-20T07:37:21;97343.72;;;2.72;81.50
14242;BME280;7205;50.864;12.766;2023-01-20T07:39:48;97352.09;;;2.76;81.42
14242;BME280;7205;50.864;12.766;2023-01-20T07:42:14;97346.03;;;2.75;80.85
14242;BME280;7205;50.864;12.766;2023-01-20T07:44:41;97352.09;;;2.76;81.55
14242;BME280;7205;50.864;12.766;2023-01-20T07:47:09;97353.59;;;2.78;81.12
14242;BME280;7205;50.864;12.766;2023-01-20T07:49:36;97355.25;;;2.79;81.03
14242;BME280;7205;50.864;12.766;2023-01-20T07:52:03;97357.03;;;2.79;81.02
14242;BME280;7205;50.864;12.766;2023-01-20T07:54:30;97357.31;;;2.76;81.07
14242;BME280;7205;50.864;12.766;2023-01-20T07:56:57;97358.94;;;2.77;81.50
14242;BME280;7205;50.864;12.766;2023-01-20T07:59:24;97375.28;;;2.79;81.47
14242;BME280;7205;50.864;12.766;2023-01-20T08:01:53;97362.66;;;2.74;81.35
14242;BME280;7205;50.864;12.766;2023-01-20T08:04:21;97368.81;;;2.73;80.93
14242;BME280;7205;50.864;12.766;2023-01-20T08:06:48;97380.19;;;2.72;80.63
14242;BME280;7205;50.864;12.766;2023-01-20T08:09:17;97378.44;;;2.73;80.79
14242;BME280;7205;50.864;12.766;2023-01-20T08:12:01;97381.84;;;2.73;81.18
14242;BME280;7205;50.864;12.766;2023-01-20T08:14:32;97385.69;;;2.79;81.19
14242;BME280;7205;50.864;12.766;2023-01-20T08:16:59;97393.13;;;2.83;81.19
14242;BME280;7205;50.864;12.766;2023-01-20T08:19:39;97391.19;;;2.85;81.55
14242;BME280;7205;50.864;12.766;2023-01-20T08:22:06;97399.31;;;2.92;81.89
14242;BME280;7205;50.864;12.766;2023-01-20T08:24:33;97389.03;;;2.90;80.99
14242;BME280;7205;50.864;12.766;2023-01-20T08:27:06;97399.88;;;2.95;81.45
14242;BME280;7205;50.864;12.766;2023-01-20T08:29:33;97397.13;;;2.97;80.69
14242;BME280;7205;50.864;12.766;2023-01-20T08:32:00;97408.25;;;2.99;80.65
14242;BME280;7205;50.864;12.766;2023-01-20T08:34:28;97409.91;;;3.00;80.82
14242;BME280;7205;50.864;12.766;2023-01-20T08:36:56;97409.09;;;2.99;80.35
14242;BME280;7205;50.864;12.766;2023-01-20T08:39:23;97418.28;;;3.03;80.66
14242;BME280;7205;50.864;12.766;2023-01-20T08:41:50;97423.09;;;3.08;80.77
14242;BME280;7205;50.864;12.766;2023-01-20T08:44:18;97429.00;;;3.10;80.09
14242;BME280;7205;50.864;12.766;2023-01-20T08:46:47;97422.13;;;3.09;80.56
14242;BME280;7205;50.864;12.766;2023-01-20T08:49:16;97427.22;;;3.10;79.86
14242;BME280;7205;50.864;12.766;2023-01-20T08:51:46;97428.03;;;3.11;80.22
14242;BME280;7205;50.864;12.766;2023-01-20T08:54:17;97437.00;;;3.18;79.94
14242;BME280;7205;50.864;12.766;2023-01-20T08:56:44;97436.00;;;3.19;80.13
14242;BME280;7205;50.864;12.766;2023-01-20T08:59:11;97441.66;;;3.24;80.10
14242;BME280;7205;50.864;12.766;2023-01-20T09:01:39;97449.75;;;3.30;80.02
14242;BME280;7205;50.864;12.766;2023-01-20T09:04:08;97446.88;;;3.33;79.73
14242;BME280;7205;50.864;12.766;2023-01-20T09:06:40;97451.16;;;3.34;79.45
14242;BME280;7205;50.864;12.766;2023-01-20T09:09:07;97449.38;;;3.35;78.81
14242;BME280;7205;50.864;12.766;2023-01-20T09:11:38;97448.81;;;3.31;78.81
14242;BME280;7205;50.864;12.766;2023-01-20T09:14:05;97451.56;;;3.30;78.09
14242;BME280;7205;50.864;12.766;2023-01-20T09:16:35;97450.31;;;3.24;77.97
14242;BME280;7205;50.864;12.766;2023-01-20T09:19:02;97460.75;;;3.24;78.08
14242;BME280;7205;50.864;12.766;2023-01-20T09:21:30;97463.63;;;3.21;78.18
14242;BME280;7205;50.864;12.766;2023-01-20T09:23:56;97470.75;;;3.19;77.90
14242;BME280;7205;50.864;12.766;2023-01-20T09:26:23;97469.09;;;3.18;78.05
14242;BME280;7205;50.864;12.766;2023-01-20T09:28:52;97473.88;;;3.13;77.50
14242;BME280;7205;50.864;12.766;2023-01-20T09:31:18;97478.16;;;3.14;77.57
14242;BME280;7205;50.864;12.766;2023-01-20T09:33:45;97469.50;;;3.14;77.98
14242;BME280;7205;50.864;12.766;2023-01-20T09:36:12;97479.28;;;3.21;77.50
14242;BME280;7205;50.864;12.766;2023-01-20T09:38:39;97476.41;;;3.24;78.55
14242;BME280;7205;50.864;12.766;2023-01-20T09:41:26;97482.19;;;3.28;78.11
14242;BME280;7205;50.864;12.766;2023-01-20T09:44:26;97485.47;;;3.30;78.44
14242;BME280;7205;50.864;12.766;2023-01-20T09:47:06;97476.00;;;3.29;77.37
14242;BME280;7205;50.864;12.766;2023-01-20T09:49:57;97480.00;;;3.33;77.82
14242;BME280;7205;50.864;12.766;2023-01-20T09:52:46;97481.22;;;3.38;77.82
14242;BME280;7205;50.864;12.766;2023-01-20T09:55:33;97473.69;;;3.45;78.20
14242;BME280;7205;50.864;12.766;2023-01-20T09:58:09;97480.97;;;3.51;77.86
14242;BME280;7205;50.864;12.766;2023-01-20T10:00:45;97483.03;;;3.57;77.80
14242;BME280;7205;50.864;12.766;2023-01-20T10:03:18;97482.50;;;3.63;77.64
14242;BME280;7205;50.864;12.766;2023-01-20T10:05:48;97483.47;;;3.71;77.00
14242;BME280;7205;50.864;12.766;2023-01-20T10:08:19;97488.56;;;3.82;77.51
14242;BME280;7205;50.864;12.766;2023-01-20T10:10:50;97483.72;;;3.97;76.79
14242;BME280;7205;50.864;12.766;2023-01-20T10:13:24;97479.06;;;4.10;77.08
14242;BME280;7205;50.864;12.766;2023-01-20T10:15:55;97485.13;;;4.20;76.70
14242;BME280;7205;50.864;12.766;2023-01-20T10:18:28;97481.78;;;4.28;75.75
14242;BME280;7205;50.864;12.766;2023-01-20T10:21:01;97482.03;;;4.34;75.84
14242;BME280;7205;50.864;12.766;2023-01-20T10:23:36;97479.69;;;4.41;75.22
14242;BME280;7205;50.864;12.766;2023-01-20T10:26:09;97483.00;;;4.43;74.02
14242;BME280;7205;50.864;12.766;2023-01-20T10:28:52;97485.59;;;4.43;74.07
14242;BME280;7205;50.864;12.766;2023-01-20T10:31:24;97481.75;;;4.47;73.29
14242;BME280;7205;50.864;12.766;2023-01-20T10:33:54;97480.50;;;4.51;73.41
14242;BME280;7205;50.864;12.766;2023-01-20T10:36:26;97484.47;;;4.55;73.29
14242;BME280;7205;50.864;12.766;2023-01-20T10:39:01;97483.75;;;4.62;73.38
14242;BME280;7205;50.864;12.766;2023-01-20T10:41:35;97484.84;;;4.69;73.34
14242;BME280;7205;50.864;12.766;2023-01-20T10:44:09;97488.41;;;4.78;73.09
14242;BME280;7205;50.864;12.766;2023-01-20T10:46:55;97491.13;;;4.86;73.27
14242;BME280;7205;50.864;12.766;2023-01-20T10:52:44;97478.81;;;4.96;71.58
14242;BME280;7205;50.864;12.766;2023-01-20T10:55:22;97480.88;;;5.02;70.94
14242;BME280;7205;50.864;12.766;2023-01-20T10:57:57;97479.59;;;5.06;70.46
14242;BME280;7205;50.864;12.766;2023-01-20T11:00:29;97485.81;;;5.05;69.96
14242;BME280;7205;50.864;12.766;2023-01-20T11:03:01;97491.19;;;5.03;69.64
14242;BME280;7205;50.864;12.766;2023-01-20T11:05:36;97487.22;;;4.99;69.48
14242;BME280;7205;50.864;12.766;2023-01-20T11:08:09;97487.06;;;5.01;69.37
14242;BME280;7205;50.864;12.766;2023-01-20T11:10:42;97487.44;;;5.06;69.17
14242;BME280;7205;50.864;12.766;2023-01-20T11:13:10;97494.88;;;5.10;69.40
14242;BME280;7205;50.864;12.766;2023-01-20T11:15:43;97491.16;;;5.13;68.49
14242;BME280;7205;50.864;12.766;2023-01-20T11:18:28;97492.13;;;5.12;67.98
14242;BME280;7205;50.864;12.766;2023-01-20T11:20:58;97494.44;;;5.15;68.70
14242;BME280;7205;50.864;12.766;2023-01-20T11:23:46;97495.13;;;5.17;67.81
14242;BME280;7205;50.864;12.766;2023-01-20T11:26:18;97496.63;;;5.20;68.18
14242;BME280;7205;50.864;12.766;2023-01-20T11:28:50;97499.47;;;5.26;67.94
14242;BME280;7205;50.864;12.766;2023-01-20T11:31:18;97502.47;;;5.31;67.88
14242;BME280;7205;50.864;12.766;2023-01-20T11:33:58;97497.47;;;5.38;67.75
14242;BME280;7205;50.864;12.766;2023-01-20T11:36:25;97503.78;;;5.45;67.79
14242;BME280;7205;50.864;12.766;2023-01-20T11:38:55;97500.59;;;5.51;68.17
14242;BME280;7205;50.864;12.766;2023-01-20T11:41:25;97510.31;;;5.58;67.43
14242;BME280;7205;50.864;12.766;2023-01-20T11:43:54;97516.91;;;5.62;66.68
14242;BME280;7205;50.864;12.766;2023-01-20T11:46:31;97513.47;;;5.62;65.93
14242;BME280;7205;50.864;12.766;2023-01-20T11:49:17;97518.09;;;5.68;65.88
14242;BME280;7205;50.864;12.766;2023-01-20T11:51:51;97516.78;;;5.64;65.10
14242;BME280;7205;50.864;12.766;2023-01-20T11:54:20;97516.38;;;5.59;64.42
14242;BME280;7205;50.864;12.766;2023-01-20T11:56:57;97518.78;;;5.52;63.76
14242;BME280;7205;50.864;12.766;2023-01-20T11:59:27;97522.25;;;5.43;63.38
14242;BME280;7205;50.864;12.766;2023-01-20T12:01:58;97515.16;;;5.36;63.59
14242;BME280;7205;50.864;12.766;2023-01-20T12:04:56;97523.94;;;5.35;63.61
14242;BME280;7205;50.864;12.766;2023-01-20T12:07:50;97529.88;;;5.37;64.13
14242;BME280;7205;50.864;12.766;2023-01-20T12:10:48;97525.31;;;5.39;64.55
14242;BME280;7205;50.864;12.766;2023-01-20T12:16:34;97525.66;;;5.53;63.86
14242;BME280;7205;50.864;12.766;2023-01-20T12:19:03;97535.41;;;5.61;64.02
14242;BME280;7205;50.864;12.766;2023-01-20T12:21:41;97536.59;;;5.66;63.71
14242;BME280;7205;50.864;12.766;2023-01-20T12:24:12;97538.78;;;5.71;63.46
14242;BME280;7205;50.864;12.766;2023-01-20T12:26:41;97539.44;;;5.73;63.16
14242;BME280;7205;50.864;12.766;2023-01-20T12:29:13;97544.69;;;5.73;62.92
14242;BME280;7205;50.864;12.766;2023-01-20T12:31:43;97547.28;;;5.73;62.72
14242;BME280;7205;50.864;12.766;2023-01-20T12:34:14;97547.75;;;5.68;62.05
14242;BME280;7205;50.864;12.766;2023-01-20T12:36:55;97552.44;;;5.65;62.25
14242;BME280;7205;50.864;12.766;2023-01-20T12:39:33;97546.28;;;5.56;61.51
14242;BME280;7205;50.864;12.766;2023-01-20T12:45:19;97553.91;;;5.23;60.70
14242;BME280;7205;50.864;12.766;2023-01-20T12:47:58;97545.00;;;5.06;61.12
14242;BME280;7205;50.864;12.766;2023-01-20T12:50:36;97548.50;;;4.97;61.36
14242;BME280;7205;50.864;12.766;2023-01-20T12:53:26;97561.59;;;4.87;61.40
14242;BME280;7205;50.864;12.766;2023-01-20T12:56:10;97563.00;;;4.72;61.38
14242;BME280;7205;50.864;12.766;2023-01-20T12:58:50;97573.19;;;4.66;61.46
14242;BME280;7205;50.864;12.766;2023-01-20T13:01:31;97573.78;;;4.50;62.00
14242;BME280;7205;50.864;12.766;2023-01-20T13:04:37;97576.94;;;4.44;62.21
14242;BME280;7205;50.864;12.766;2023-01-20T13:10:27;97581.22;;;4.36;62.83
14242;BME280;7205;50.864;12.766;2023-01-20T13:12:59;97581.34;;;4.34;63.11
14242;BME280;7205;50.864;12.766;2023-01-20T13:15:32;97590.59;;;4.38;63.47
14242;BME280;7205;50.864;12.766;2023-01-20T13:18:23;97585.34;;;4.38;63.59
14242;BME280;7205;50.864;12.766;2023-01-20T13:20:54;97585.34;;;4.38;63.17
14242;BME280;7205;50.864;12.766;2023-01-20T13:23:24;97591.66;;;4.36;63.00
14242;BME280;7205;50.864;12.766;2023-01-20T13:25:53;97596.63;;;4.29;62.64
14242;BME280;7205;50.864;12.766;2023-01-20T13:28:23;97600.19;;;4.19;61.94
14242;BME280;7205;50.864;12.766;2023-01-20T13:30:52;97606.09;;;4.11;62.46
14242;BME280;7205;50.864;12.766;2023-01-20T13:33:31;97602.94;;;4.08;62.80
14242;BME280;7205;50.864;12.766;2023-01-20T13:35:59;97602.38;;;4.04;62.81
14242;BME280;7205;50.864;12.766;2023-01-20T13:38:27;97607.75;;;4.03;62.65
14242;BME280;7205;50.864;12.766;2023-01-20T13:40:59;97607.88;;;4.01;62.79
14242;BME280;7205;50.864;12.766;2023-01-20T13:43:35;97611.16;;;3.94;62.98